Time;durP1;ratioP1;P1;durP2;ratioP2;P2;SDS_P1;SDS_P2;PMS_P1;PMS_P2;Temp;Humidity;BMP_temperature;BMP_pressure;BME280_temperature;BME280_humidity;BME280_pressure;Samples;Min_cycle;Max_cycle;Signal;HPM_P1;HPM_P2
2021/12/03 00:02:05;;;;;;;7.57;7.17;;;3.80;79.10;;;;;;5047714;28;20037;-86
2021/12/03 00:04:31;;;;;;;13.03;12.33;;;3.80;79.10;;;;;;5046047;28;20029;-87
2021/12/03 00:06:58;;;;;;;7.77;7.37;;;3.80;79.90;;;;;;5050683;28;20029;-86
2021/12/03 00:09:24;;;;;;;8.20;7.60;;;3.80;79.10;;;;;;5046225;28;20040;-85
2021/12/03 00:11:50;;;;;;;8.67;8.00;;;3.80;79.20;;;;;;5047620;28;20501;-86
2021/12/03 00:14:16;;;;;;;7.50;7.10;;;3.70;79.10;;;;;;5046715;28;20089;-86
2021/12/03 00:16:42;;;;;;;7.60;7.20;;;3.70;79.20;;;;;;5047500;28;20045;-85
2021/12/03 00:19:08;;;;;;;7.87;7.47;;;3.70;79.20;;;;;;5051331;28;20040;-85
2021/12/03 00:21:37;;;;;;;7.50;7.10;;;3.70;79.20;;;;;;5046409;28;20040;-86
2021/12/03 00:24:03;;;;;;;7.53;7.17;;;3.70;79.20;;;;;;5045451;28;20029;-85
2021/12/03 00:26:29;;;;;;;7.80;7.30;;;3.70;79.20;;;;;;5047933;28;20382;-86
2021/12/03 00:28:55;;;;;;;7.73;7.00;;;3.70;79.20;;;;;;5036779;28;20056;-86
2021/12/03 00:31:22;;;;;;;7.60;7.20;;;3.70;79.20;;;;;;5043279;28;20037;-86
2021/12/03 00:33:48;;;;;;;7.40;6.80;;;3.70;79.20;;;;;;5045909;28;20408;-85
2021/12/03 00:36:14;;;;;;;7.13;6.83;;;3.60;79.10;;;;;;5047276;28;20025;-85
2021/12/03 00:38:43;;;;;;;8.40;7.93;;;3.60;79.10;;;;;;5047492;28;20037;-86
2021/12/03 00:41:12;;;;;;;7.47;7.07;;;3.60;79.20;;;;;;5045520;28;20025;-86
2021/12/03 00:43:43;;;;;;;9.43;8.83;;;3.60;79.30;;;;;;5022075;28;20039;-86
2021/12/03 00:46:10;;;;;;;8.18;7.68;;;3.50;79.20;;;;;;5047408;28;20037;-86
2021/12/03 00:48:37;;;;;;;7.20;6.80;;;3.50;79.20;;;;;;5048346;28;20033;-86
2021/12/03 00:51:05;;;;;;;7.30;6.97;;;3.50;79.20;;;;;;5032228;28;20037;-85
2021/12/03 00:53:31;;;;;;;7.43;7.03;;;3.50;79.30;;;;;;5043416;28;20032;-85
2021/12/03 00:55:57;;;;;;;7.13;6.73;;;3.40;79.20;;;;;;5034533;28;20041;-86
2021/12/03 00:58:23;;;;;;;7.43;6.77;;;3.40;79.20;;;;;;5049500;28;20044;-86
2021/12/03 01:00:49;;;;;;;6.53;6.23;;;3.50;79.30;;;;;;5053081;28;20033;-86
2021/12/03 01:03:16;;;;;;;6.13;5.83;;;3.40;79.20;;;;;;5050137;28;20040;-87
2021/12/03 01:05:42;;;;;;;6.80;6.50;;;3.50;79.30;;;;;;5050592;28;20033;-86
2021/12/03 01:08:08;;;;;;;6.87;6.47;;;3.40;79.20;;;;;;5051111;28;20033;-86
2021/12/03 01:10:34;;;;;;;7.10;6.70;;;3.40;79.20;;;;;;5054387;28;20040;-86
2021/12/03 01:13:00;;;;;;;6.23;5.93;;;3.40;79.10;;;;;;5051818;28;20037;-85
2021/12/03 01:15:28;;;;;;;7.10;6.70;;;3.40;79.10;;;;;;5050429;28;20036;-85
2021/12/03 01:17:55;;;;;;;9.60;8.87;;;3.40;79.10;;;;;;5050488;28;20048;-86
2021/12/03 01:20:21;;;;;;;7.30;6.90;;;3.40;79.00;;;;;;5050054;28;20723;-86
2021/12/03 01:22:48;;;;;;;7.07;6.67;;;3.40;79.00;;;;;;5051664;28;20044;-85
2021/12/03 01:25:14;;;;;;;6.20;5.90;;;3.40;79.10;;;;;;5051899;28;20029;-86
2021/12/03 01:27:40;;;;;;;6.83;6.33;;;3.40;79.10;;;;;;5051311;28;20044;-86
2021/12/03 01:30:08;;;;;;;7.27;6.80;;;3.40;79.10;;;;;;5049907;28;20036;-86
2021/12/03 01:32:35;;;;;;;6.40;6.10;;;3.40;79.10;;;;;;5051913;28;20518;-85
2021/12/03 01:35:01;;;;;;;6.27;5.90;;;3.40;79.10;;;;;;5033414;28;20044;-85
2021/12/03 01:37:27;;;;;;;6.57;6.23;;;3.40;79.10;;;;;;5051957;28;20067;-86
2021/12/03 01:39:53;;;;;;;7.70;7.00;;;3.40;79.10;;;;;;5035655;28;20037;-86
2021/12/03 01:42:19;;;;;;;6.77;6.47;;;3.40;79.10;;;;;;5048783;28;20386;-86
2021/12/03 01:44:45;;;;;;;6.43;6.13;;;3.40;79.20;;;;;;5051308;28;20037;-87
2021/12/03 01:47:11;;;;;;;7.87;7.17;;;3.40;79.10;;;;;;5034388;28;20045;-86
2021/12/03 01:49:37;;;;;;;7.17;6.67;;;3.40;79.10;;;;;;5035768;28;20067;-86
2021/12/03 01:52:04;;;;;;;7.90;7.20;;;3.40;79.10;;;;;;5050849;28;20049;-87
2021/12/03 01:54:30;;;;;;;6.60;6.30;;;3.40;79.10;;;;;;5051361;28;20394;-86
2021/12/03 01:56:56;;;;;;;8.03;7.33;;;3.40;79.00;;;;;;5049841;28;20041;-86
2021/12/03 01:59:22;;;;;;;6.57;6.27;;;3.40;79.00;;;;;;5050648;28;20049;-86
2021/12/03 02:01:48;;;;;;;8.30;6.60;;;3.40;79.00;;;;;;5051426;28;20125;-86
2021/12/03 02:04:14;;;;;;;7.10;6.73;;;3.40;79.00;;;;;;5051676;28;20045;-86
2021/12/03 02:06:40;;;;;;;7.30;6.90;;;3.50;79.00;;;;;;5049006;28;20037;-85
2021/12/03 02:09:06;;;;;;;6.93;6.63;;;3.50;79.00;;;;;;5050349;28;20052;-87
2021/12/03 02:11:33;;;;;;;6.67;6.37;;;3.50;78.90;;;;;;5049720;28;20482;-86
2021/12/03 02:13:59;;;;;;;7.07;6.67;;;3.50;78.80;;;;;;5051480;28;20025;-86
2021/12/03 02:16:26;;;;;;;6.93;6.63;;;3.50;78.80;;;;;;5052638;28;20064;-87
2021/12/03 02:18:52;;;;;;;7.33;6.93;;;3.60;78.90;;;;;;5050085;28;20067;-86
2021/12/03 02:21:18;;;;;;;7.70;7.27;;;3.60;78.90;;;;;;5049183;28;20385;-87
2021/12/03 02:23:44;;;;;;;7.50;7.10;;;3.60;78.80;;;;;;5047233;28;20037;-86
2021/12/03 02:26:11;;;;;;;7.80;7.40;;;3.60;78.80;;;;;;5047970;28;20037;-88
2021/12/03 02:28:40;;;;;;;7.53;7.07;;;3.60;78.80;;;;;;5045623;28;20040;-86
2021/12/03 02:31:06;;;;;;;7.27;6.87;;;3.60;78.90;;;;;;5050044;28;20032;-87
2021/12/03 02:33:33;;;;;;;7.03;6.63;;;3.60;78.90;;;;;;5048384;28;20033;-87
2021/12/03 02:35:59;;;;;;;7.00;6.67;;;3.60;78.90;;;;;;5048420;28;20029;-86
2021/12/03 02:38:26;;;;;;;6.90;6.60;;;3.60;78.90;;;;;;5049764;28;20068;-86
2021/12/03 02:40:52;;;;;;;8.03;7.43;;;3.60;78.90;;;;;;5049932;28;20478;-86
2021/12/03 02:43:19;;;;;;;7.67;7.30;;;3.60;78.90;;;;;;5052204;28;20029;-86
2021/12/03 02:45:45;;;;;;;7.17;6.87;;;3.60;78.90;;;;;;5049899;28;20040;-86
2021/12/03 02:48:11;;;;;;;7.40;7.00;;;3.60;78.90;;;;;;5050434;28;20060;-86
2021/12/03 02:50:37;;;;;;;7.43;7.10;;;3.60;78.80;;;;;;5048502;28;20052;-86
2021/12/03 02:53:03;;;;;;;6.90;6.60;;;3.70;78.80;;;;;;5035505;28;20033;-86
2021/12/03 02:55:29;;;;;;;7.83;7.43;;;3.70;78.80;;;;;;5034122;28;20037;-86
2021/12/03 02:57:56;;;;;;;7.87;7.47;;;3.70;79.60;;;;;;5049969;28;20029;-86
2021/12/03 03:00:25;;;;;;;6.83;6.53;;;3.70;78.80;;;;;;5030862;28;20044;-86
2021/12/03 03:02:51;;;;;;;7.60;7.20;;;3.70;78.70;;;;;;5044027;28;20033;-86
2021/12/03 03:05:17;;;;;;;8.13;7.60;;;3.70;78.70;;;;;;5039081;28;20025;-86
2021/12/03 03:07:43;;;;;;;7.60;7.20;;;3.70;78.80;;;;;;5040965;28;20394;-87
2021/12/03 03:10:11;;;;;;;6.90;6.60;;;3.70;78.80;;;;;;5052466;28;20025;-86
2021/12/03 03:12:38;;;;;;;6.93;6.63;;;3.80;78.90;;;;;;5051067;28;20025;-87
2021/12/03 03:15:04;;;;;;;7.53;7.13;;;3.70;78.80;;;;;;5053192;28;20039;-86
2021/12/03 03:17:31;;;;;;;7.67;7.03;;;3.80;78.80;;;;;;5036456;28;20041;-86
2021/12/03 03:19:57;;;;;;;7.00;6.70;;;3.80;78.80;;;;;;5034353;28;20036;-86
2021/12/03 03:22:24;;;;;;;7.27;6.90;;;3.80;78.80;;;;;;5037631;28;20036;-86
2021/12/03 03:24:50;;;;;;;8.13;7.73;;;3.80;78.80;;;;;;5048232;28;20036;-87
2021/12/03 03:27:17;;;;;;;7.37;7.07;;;3.80;78.80;;;;;;5053566;28;20040;-87
2021/12/03 03:29:44;;;;;;;7.37;7.07;;;3.80;78.80;;;;;;5052829;28;20035;-86
2021/12/03 03:32:11;;;;;;;8.67;7.83;;;3.80;78.80;;;;;;5047058;28;20501;-87
2021/12/03 03:34:37;;;;;;;7.53;7.17;;;3.90;78.80;;;;;;5035203;28;20037;-86
2021/12/03 03:37:03;;;;;;;7.67;7.30;;;3.90;78.80;;;;;;5049534;28;20025;-87
2021/12/03 03:39:30;;;;;;;8.00;7.60;;;3.90;78.70;;;;;;5046545;28;20055;-86
2021/12/03 03:41:56;;;;;;;8.20;7.80;;;3.90;78.70;;;;;;5047001;28;20029;-87
2021/12/03 03:44:22;;;;;;;8.30;7.80;;;3.90;78.70;;;;;;5046950;28;20040;-87
2021/12/03 03:46:51;;;;;;;8.13;7.73;;;3.90;78.70;;;;;;5047150;28;20071;-86
2021/12/03 03:49:19;;;;;;;8.17;7.77;;;3.90;78.70;;;;;;5033607;28;20032;-86
2021/12/03 03:51:46;;;;;;;8.03;7.63;;;3.90;78.70;;;;;;5047680;28;20555;-85
2021/12/03 03:54:12;;;;;;;8.33;7.93;;;3.90;78.70;;;;;;5047178;28;20374;-85
2021/12/03 03:56:38;;;;;;;8.57;8.17;;;4.00;78.80;;;;;;5050393;28;20401;-85
2021/12/03 03:59:04;;;;;;;10.33;8.17;;;4.00;78.70;;;;;;5048133;28;20041;-86
2021/12/03 04:01:31;;;;;;;7.90;7.40;;;4.00;78.70;;;;;;5049625;28;20037;-85
2021/12/03 04:03:57;;;;;;;9.57;8.87;;;4.00;78.70;;;;;;5049234;28;20028;-86
2021/12/03 04:06:23;;;;;;;8.00;7.50;;;4.00;79.40;;;;;;5033265;28;20044;-86
2021/12/03 04:08:49;;;;;;;15.20;8.60;;;4.10;78.70;;;;;;5046552;28;20037;-86
2021/12/03 04:11:17;;;;;;;7.73;7.33;;;4.00;78.60;;;;;;5049020;28;20096;-85
2021/12/03 04:13:43;;;;;;;7.80;7.40;;;4.10;78.70;;;;;;5028790;28;20481;-86
2021/12/03 04:16:09;;;;;;;7.93;7.53;;;4.10;78.70;;;;;;5046334;28;20040;-85
2021/12/03 04:18:35;;;;;;;8.37;7.87;;;4.10;78.70;;;;;;5048731;28;20056;-86
2021/12/03 04:21:02;;;;;;;7.37;7.07;;;4.10;78.70;;;;;;5047917;28;20029;-85
2021/12/03 04:23:28;;;;;;;7.97;7.47;;;4.10;78.70;;;;;;5048042;28;20488;-86
2021/12/03 04:25:54;;;;;;;8.40;7.80;;;4.10;78.70;;;;;;5048762;28;20025;-85
2021/12/03 04:28:20;;;;;;;8.10;7.70;;;4.20;78.70;;;;;;5032363;28;20060;-85
2021/12/03 04:30:47;;;;;;;9.00;8.37;;;4.10;78.70;;;;;;5054247;28;20033;-88
2021/12/03 04:33:13;;;;;;;7.60;7.20;;;4.10;78.70;;;;;;5054825;28;20405;-86
2021/12/03 04:35:39;;;;;;;8.27;7.77;;;4.20;78.70;;;;;;5053803;28;20037;-85
2021/12/03 04:38:05;;;;;;;7.67;7.27;;;4.20;79.40;;;;;;5056189;28;20041;-85
2021/12/03 04:40:33;;;;;;;7.33;7.03;;;4.30;78.70;;;;;;5053856;28;20041;-84
2021/12/03 04:42:59;;;;;;;8.17;7.73;;;4.20;78.70;;;;;;5053910;28;20488;-84
2021/12/03 04:45:26;;;;;;;7.20;6.90;;;4.30;78.70;;;;;;5056039;28;20039;-87
2021/12/03 04:47:53;;;;;;;7.97;7.57;;;4.30;78.60;;;;;;5053888;28;20045;-82
2021/12/03 04:50:20;;;;;;;6.73;6.43;;;4.30;78.60;;;;;;5054455;28;20176;-81
2021/12/03 04:52:46;;;;;;;7.70;7.30;;;4.30;78.60;;;;;;5055051;28;20036;-81
2021/12/03 04:55:13;;;;;;;7.63;7.23;;;4.30;78.60;;;;;;5056337;28;20039;-80
2021/12/03 04:57:39;;;;;;;8.33;7.73;;;4.30;78.60;;;;;;5054980;28;20021;-80
2021/12/03 05:00:07;;;;;;;8.83;8.37;;;4.30;78.60;;;;;;5053530;28;20040;-80
2021/12/03 05:02:33;;;;;;;7.10;6.80;;;4.40;78.70;;;;;;5053354;28;20024;-80
2021/12/03 05:05:03;;;;;;;8.67;8.03;;;4.30;78.60;;;;;;5056757;28;20044;-81
2021/12/03 05:07:53;;;;;;;7.40;7.10;;;4.30;78.70;;;;;;5055771;28;20052;-81
2021/12/03 05:10:18;;;;;;;7.33;7.03;;;4.30;78.60;;;;;;5056858;28;20033;-80
2021/12/03 05:12:44;;;;;;;8.30;7.80;;;4.40;78.60;;;;;;5056120;28;20033;-82
2021/12/03 05:15:10;;;;;;;8.00;7.60;;;4.40;78.60;;;;;;5051383;28;20470;-81
2021/12/03 05:17:36;;;;;;;7.57;7.17;;;4.40;78.70;;;;;;5052674;28;20037;-80
2021/12/03 05:20:03;;;;;;;8.50;8.00;;;4.40;78.80;;;;;;5044926;28;20465;-81
2021/12/03 05:22:29;;;;;;;7.63;7.23;;;4.40;78.70;;;;;;5055514;28;20394;-81
2021/12/03 05:24:55;;;;;;;7.00;6.70;;;4.40;78.70;;;;;;5057346;28;20041;-81
2021/12/03 05:27:21;;;;;;;7.67;7.27;;;4.40;78.70;;;;;;5056929;28;20398;-81
2021/12/03 05:29:48;;;;;;;7.57;7.17;;;4.40;78.60;;;;;;5055808;28;20047;-80
2021/12/03 05:32:15;;;;;;;7.60;7.10;;;4.50;78.70;;;;;;5053248;28;20034;-80
2021/12/03 05:34:41;;;;;;;6.70;6.40;;;4.50;78.70;;;;;;5056918;28;20069;-80
2021/12/03 05:37:08;;;;;;;7.13;6.83;;;4.50;78.60;;;;;;5057642;28;20025;-87
2021/12/03 05:39:35;;;;;;;7.23;6.93;;;4.50;78.60;;;;;;5038576;28;20045;-81
2021/12/03 05:42:01;;;;;;;8.27;7.77;;;4.50;78.60;;;;;;5052296;28;20506;-83
2021/12/03 05:44:29;;;;;;;8.10;7.70;;;4.50;78.60;;;;;;5053118;28;20045;-81
2021/12/03 05:46:59;;;;;;;7.53;7.13;;;4.60;78.70;;;;;;5053171;28;20057;-81
2021/12/03 05:49:25;;;;;;;7.70;7.30;;;4.60;78.70;;;;;;5048737;28;20492;-80
2021/12/03 05:51:51;;;;;;;7.20;6.90;;;4.60;78.60;;;;;;5052334;28;20036;-80
2021/12/03 05:54:18;;;;;;;6.70;6.40;;;4.60;78.60;;;;;;5048198;28;20508;-80
2021/12/03 05:56:44;;;;;;;7.37;7.07;;;4.60;78.60;;;;;;5051807;28;20029;-82
2021/12/03 05:59:10;;;;;;;7.87;7.27;;;4.60;78.60;;;;;;5052625;28;20040;-80
2021/12/03 06:01:36;;;;;;;7.53;7.13;;;4.60;78.60;;;;;;5052928;28;20037;-80
2021/12/03 06:04:03;;;;;;;7.30;6.80;;;4.60;78.60;;;;;;5044776;28;20033;-81
2021/12/03 06:06:29;;;;;;;7.30;6.73;;;4.60;78.60;;;;;;5035453;28;20044;-80
2021/12/03 06:08:57;;;;;;;6.70;6.40;;;4.70;78.70;;;;;;5053361;28;20036;-79
2021/12/03 06:11:24;;;;;;;7.17;6.87;;;4.70;78.70;;;;;;5052522;28;20032;-79
2021/12/03 06:13:51;;;;;;;7.20;6.80;;;4.70;78.70;;;;;;5052621;28;20466;-79
2021/12/03 06:16:17;;;;;;;7.07;6.77;;;4.70;78.60;;;;;;5052003;28;20029;-81
2021/12/03 06:18:43;;;;;;;7.13;6.77;;;4.70;78.70;;;;;;5052990;28;20081;-81
2021/12/03 06:21:10;;;;;;;7.73;7.27;;;4.70;78.70;;;;;;5051615;28;20521;-79
2021/12/03 06:23:36;;;;;;;7.10;6.80;;;4.70;78.70;;;;;;5051916;28;20037;-80
2021/12/03 06:26:03;;;;;;;6.93;6.63;;;4.70;78.70;;;;;;5050144;28;20048;-80
2021/12/03 06:28:29;;;;;;;7.47;7.07;;;4.70;78.70;;;;;;5033015;28;20040;-81
2021/12/03 06:30:55;;;;;;;7.17;6.77;;;4.70;78.70;;;;;;5068408;28;20489;-81
2021/12/03 06:33:22;;;;;;;7.57;7.17;;;4.70;78.70;;;;;;5053048;28;20390;-80
2021/12/03 06:35:48;;;;;;;7.50;7.10;;;4.70;78.70;;;;;;5048720;28;20453;-80
2021/12/03 06:38:15;;;;;;;6.80;6.50;;;4.70;78.70;;;;;;5053199;28;20029;-80
2021/12/03 06:40:41;;;;;;;6.77;6.47;;;4.80;78.80;;;;;;5050816;28;20041;-80
2021/12/03 06:43:08;;;;;;;7.00;6.70;;;4.80;78.80;;;;;;5050957;28;20059;-82
2021/12/03 06:45:34;;;;;;;7.43;7.03;;;4.80;78.80;;;;;;5050901;28;20032;-82
2021/12/03 06:48:00;;;;;;;6.80;6.50;;;4.80;78.80;;;;;;5034972;28;20044;-81
2021/12/03 06:50:26;;;;;;;7.43;7.13;;;4.80;78.80;;;;;;5052432;28;20044;-82
2021/12/03 06:53:04;;;;;;;7.10;6.80;;;4.80;78.80;;;;;;5030483;28;20048;-80
2021/12/03 06:55:37;;;;;;;7.13;6.83;;;4.80;78.80;;;;;;5051659;28;20211;-80
2021/12/03 06:58:04;;;;;;;6.80;6.50;;;4.80;78.80;;;;;;5051161;28;20405;-80
2021/12/03 07:00:30;;;;;;;7.33;6.90;;;4.80;78.80;;;;;;5034542;28;20029;-80
2021/12/03 07:02:56;;;;;;;7.07;6.77;;;4.80;78.70;;;;;;5046529;28;20413;-81
2021/12/03 07:05:22;;;;;;;7.23;6.83;;;4.80;78.70;;;;;;5052153;28;20033;-79
2021/12/03 07:07:49;;;;;;;6.90;6.60;;;4.90;78.80;;;;;;5051046;28;20096;-81
2021/12/03 07:10:15;;;;;;;7.57;7.17;;;4.90;78.80;;;;;;5050767;28;20497;-80
2021/12/03 07:12:41;;;;;;;7.13;6.83;;;4.90;78.70;;;;;;5033967;28;20440;-80
2021/12/03 07:15:07;;;;;;;9.63;7.47;;;4.90;78.70;;;;;;5029219;28;20492;-81
2021/12/03 07:17:34;;;;;;;7.53;7.13;;;4.90;78.70;;;;;;5047743;28;20394;-80
2021/12/03 07:20:00;;;;;;;6.57;6.27;;;4.90;78.70;;;;;;5046729;28;20040;-80
2021/12/03 07:22:27;;;;;;;7.97;7.37;;;5.00;78.70;;;;;;5041322;28;20085;-81
2021/12/03 07:24:53;;;;;;;7.27;6.97;;;5.00;78.70;;;;;;5049620;28;20037;-81
2021/12/03 07:27:20;;;;;;;7.30;7.00;;;5.00;78.70;;;;;;5047880;28;20143;-83
2021/12/03 07:29:47;;;;;;;7.03;6.73;;;5.00;78.70;;;;;;5050028;28;20025;-82
2021/12/03 07:32:15;;;;;;;7.30;7.00;;;5.00;78.70;;;;;;5031106;28;20033;-84
2021/12/03 07:34:41;;;;;;;7.00;6.70;;;5.00;78.70;;;;;;5046172;28;20486;-84
2021/12/03 07:37:07;;;;;;;7.20;6.90;;;5.00;78.70;;;;;;5046879;28;20022;-84
2021/12/03 07:39:33;;;;;;;7.80;7.40;;;5.00;78.70;;;;;;5040493;28;20048;-85
2021/12/03 07:42:00;;;;;;;7.20;6.90;;;5.00;78.70;;;;;;5047888;28;20021;-83
2021/12/03 07:44:26;;;;;;;7.20;6.90;;;5.10;78.80;;;;;;5044272;28;20029;-89
2021/12/03 07:46:52;;;;;;;7.20;6.90;;;5.10;78.80;;;;;;5032146;28;20509;-82
2021/12/03 07:49:19;;;;;;;7.50;7.20;;;5.10;78.80;;;;;;5032929;28;20040;-84
2021/12/03 07:51:45;;;;;;;7.00;6.70;;;5.10;78.80;;;;;;5043353;28;20461;-84
2021/12/03 07:54:11;;;;;;;7.03;6.73;;;5.10;78.80;;;;;;5046266;28;20032;-86
2021/12/03 07:56:38;;;;;;;7.13;6.83;;;5.10;78.80;;;;;;5048329;28;20028;-82
2021/12/03 07:59:04;;;;;;;7.37;6.97;;;5.10;78.70;;;;;;5047034;28;20365;-82
2021/12/03 08:01:30;;;;;;;7.07;6.77;;;5.20;78.80;;;;;;5043297;28;20025;-85
2021/12/03 08:03:57;;;;;;;6.93;6.63;;;5.20;78.80;;;;;;5049466;28;20256;-86
2021/12/03 08:06:23;;;;;;;6.87;6.57;;;5.20;78.80;;;;;;5044514;28;20036;-86
2021/12/03 08:08:49;;;;;;;7.47;7.07;;;5.20;78.80;;;;;;5033729;28;20044;-84
2021/12/03 08:11:15;;;;;;;6.83;6.53;;;5.20;78.80;;;;;;5041075;28;20044;-86
2021/12/03 08:13:41;;;;;;;7.00;6.70;;;5.30;78.80;;;;;;5050132;28;20081;-86
2021/12/03 08:16:07;;;;;;;7.33;7.03;;;5.30;78.70;;;;;;5050910;28;20044;-87
2021/12/03 08:18:34;;;;;;;7.20;6.90;;;5.30;78.80;;;;;;5048908;28;20037;-84
2021/12/03 08:21:00;;;;;;;7.00;6.70;;;5.30;78.70;;;;;;5042734;28;20029;-83
2021/12/03 08:23:29;;;;;;;7.20;6.90;;;5.40;78.80;;;;;;5047544;28;20032;-85
2021/12/03 08:25:55;;;;;;;6.40;6.10;;;5.40;78.70;;;;;;5045864;28;20425;-85
2021/12/03 08:28:22;;;;;;;6.97;6.67;;;5.40;78.80;;;;;;5050679;28;20036;-85
2021/12/03 08:30:48;;;;;;;6.50;6.20;;;5.50;78.70;;;;;;5046707;28;20036;-86
2021/12/03 08:33:14;;;;;;;6.60;6.30;;;5.60;78.70;;;;;;5049725;28;20062;-85
2021/12/03 08:35:40;;;;;;;6.77;6.47;;;5.60;78.60;;;;;;5048226;28;20032;-86
2021/12/03 08:38:06;;;;;;;6.97;6.67;;;5.60;78.70;;;;;;5047466;28;20037;-84
2021/12/03 08:40:34;;;;;;;6.87;6.57;;;5.60;78.60;;;;;;5042444;28;20076;-84
2021/12/03 08:43:00;;;;;;;6.80;6.50;;;5.60;78.60;;;;;;5038651;28;20029;-83
2021/12/03 08:45:26;;;;;;;7.50;7.10;;;5.60;78.60;;;;;;5024538;28;20034;-83
2021/12/03 08:47:59;;;;;;;6.57;6.27;;;5.60;78.70;;;;;;5048963;28;20056;-84
2021/12/03 08:50:33;;;;;;;6.60;6.30;;;5.60;78.60;;;;;;5038530;28;20021;-83
2021/12/03 08:54:48;;;;;;;6.93;6.60;;;5.70;78.70;;;;;;5032619;28;20036;-83
2021/12/03 08:55:55;;;;;;;6.43;6.13;;;5.70;78.70;;;;;;5034119;28;20045;-82
2021/12/03 08:58:21;;;;;;;7.00;6.70;;;5.80;78.70;;;;;;5047822;28;20029;-82
2021/12/03 09:00:48;;;;;;;6.90;6.60;;;5.80;78.60;;;;;;5043256;28;20044;-82
2021/12/03 09:03:14;;;;;;;9.63;6.60;;;5.80;78.60;;;;;;5047525;28;20474;-85
2021/12/03 09:05:40;;;;;;;6.97;6.60;;;5.80;78.50;;;;;;5048572;28;20029;-82
2021/12/03 09:08:07;;;;;;;7.23;6.93;;;5.90;78.60;;;;;;5060439;28;20045;-81
2021/12/03 09:10:33;;;;;;;7.27;6.87;;;5.90;78.50;;;;;;5055676;28;20033;-84
2021/12/03 09:12:59;;;;;;;7.10;6.80;;;6.00;78.50;;;;;;5049864;28;20474;-82
2021/12/03 09:15:30;;;;;;;7.07;6.67;;;6.00;78.50;;;;;;5050274;28;20041;-84
2021/12/03 09:18:15;;;;;;;7.13;6.82;;;6.00;78.50;;;;;;5052729;28;20470;-85
2021/12/03 09:20:53;;;;;;;9.30;7.17;;;6.00;78.50;;;;;;5043617;28;20330;-84
2021/12/03 09:23:36;;;;;;;7.50;7.20;;;6.00;78.40;;;;;;5052113;28;20025;-87
2021/12/03 09:26:22;;;;;;;8.07;7.67;;;6.10;78.50;;;;;;5034071;28;20052;-84
2021/12/03 09:28:52;;;;;;;7.43;7.03;;;6.20;78.50;;;;;;5051922;28;20029;-83
2021/12/03 09:31:18;;;;;;;7.27;6.97;;;6.20;78.30;;;;;;5055200;28;20076;-84
2021/12/03 09:33:47;;;;;;;7.63;7.30;;;6.30;78.40;;;;;;5054084;28;20033;-84
2021/12/03 09:36:13;;;;;;;6.77;6.47;;;6.30;78.40;;;;;;5055136;28;20382;-83
2021/12/03 09:38:39;;;;;;;7.00;6.70;;;6.30;78.40;;;;;;5034689;28;20045;-83
2021/12/03 09:41:14;;;;;;;7.73;7.37;;;6.40;78.40;;;;;;5064612;28;20053;-84
2021/12/03 09:43:44;;;;;;;7.17;6.87;;;6.40;78.40;;;;;;5052056;28;20045;-83
2021/12/03 09:46:16;;;;;;;7.57;7.27;;;6.40;78.40;;;;;;5050389;28;20037;-84
2021/12/03 09:51:11;;;;;;;7.40;7.00;;;6.50;78.40;;;;;;5050481;28;20079;-83
2021/12/03 09:54:12;;;;;;;7.83;7.43;;;6.60;78.40;;;;;;5031643;28;20029;-84
2021/12/03 09:56:25;;;;;;;7.90;7.43;;;6.60;78.30;;;;;;5022332;28;20496;-83
2021/12/03 10:01:46;;;;;;;7.47;7.07;;;6.70;78.30;;;;;;5049853;28;20033;-83
2021/12/03 10:15:15;;;;;;;7.13;6.83;;;7.00;78.10;;;;;;4992769;28;19913;-82
2021/12/03 10:18:30;;;;;;;7.40;7.03;;;7.00;78.00;;;;;;4988321;28;20392;-84
2021/12/03 10:20:42;;;;;;;7.00;6.70;;;7.10;78.00;;;;;;4991305;28;20422;-83
2021/12/03 10:39:07;;;;;;;7.13;6.80;;;7.40;78.10;;;;;;4992412;28;20029;-84
2021/12/03 10:41:47;;;;;;;7.10;6.80;;;7.50;78.00;;;;;;4987206;28;20043;-84
2021/12/03 10:44:25;;;;;;;7.63;7.23;;;7.50;78.00;;;;;;4989640;28;20034;-83
2021/12/03 11:07:23;;;;;;;7.50;7.20;;;8.00;78.10;;;;;;4931942;29;20039;-83
2021/12/03 11:29:34;;;;;;;7.18;6.88;;;8.40;78.00;;;;;;4913443;29;20039;-88
2021/12/03 11:43:08;;;;;;;7.60;7.20;;;8.60;78.10;;;;;;4963691;28;20501;-90
2021/12/03 12:03:18;;;;;;;7.50;7.10;;;8.90;78.20;;;;;;5050784;28;20036;-81
2021/12/03 12:07:00;;;;;;;7.65;7.28;;;9.00;78.30;;;;;;5049774;28;20025;-81
2021/12/03 13:23:55;;;;;;;8.70;8.30;;;9.80;78.80;;;;;;5037532;28;20029;-80
2021/12/03 14:12:38;;;;;;;7.05;6.75;;;10.10;79.10;;;;;;4978795;28;20046;-79
2021/12/03 14:37:10;;;;;;;8.20;7.80;;;10.30;79.30;;;;;;4948764;28;20046;-79
2021/12/03 14:40:18;;;;;;;6.97;6.60;;;10.30;79.30;;;;;;4960521;28;20038;-79
2021/12/03 14:45:10;;;;;;;6.95;6.65;;;10.40;79.40;;;;;;4985763;28;20030;-79
2021/12/03 14:55:52;;;;;;;7.18;6.88;;;10.50;79.40;;;;;;4960265;28;20038;-78
2021/12/03 14:59:01;;;;;;;7.07;6.78;;;10.60;79.50;;;;;;4943728;28;20045;-79
2021/12/03 15:06:41;;;;;;;7.05;6.75;;;10.70;79.50;;;;;;5048795;28;20040;-79
2021/12/03 15:09:44;;;;;;;6.75;6.45;;;10.70;79.50;;;;;;5050775;28;20040;-78
2021/12/03 15:25:48;;;;;;;6.75;6.45;;;10.90;79.60;;;;;;4992045;28;20053;-78
2021/12/03 15:31:14;;;;;;;6.63;6.32;;;11.00;79.70;;;;;;4989859;28;20173;-81
2021/12/03 15:33:54;;;;;;;7.03;6.70;;;11.10;79.70;;;;;;4968075;28;20043;-81
2021/12/03 15:36:38;;;;;;;6.78;6.47;;;11.10;79.60;;;;;;4989199;28;20490;-81
2021/12/03 15:58:10;;;;;;;6.50;6.20;;;11.30;79.80;;;;;;4970796;28;20038;-81
2021/12/03 16:06:27;;;;;;;6.63;6.32;;;11.40;80.60;;;;;;4965960;28;20058;-80
2021/12/03 16:08:55;;;;;;;6.47;6.18;;;11.50;79.90;;;;;;4956058;28;20045;-81
2021/12/03 16:54:04;;;;;;;7.18;6.88;;;12.40;80.20;;;;;;5048337;28;20017;-82
2021/12/03 16:56:30;;;;;;;7.68;7.20;;;12.40;80.20;;;;;;5045181;28;20398;-81
2021/12/03 16:58:59;;;;;;;11.23;7.07;;;12.40;80.30;;;;;;5045078;28;23673;-82
2021/12/03 17:12:46;;;;;;;7.07;6.78;;;12.40;80.40;;;;;;5047386;28;20044;-82
2021/12/03 17:58:14;;;;;;;6.90;6.60;;;12.60;81.00;;;;;;5037921;28;20483;-84
2021/12/03 18:00:49;;;;;;;6.70;6.40;;;12.70;81.10;;;;;;4999876;28;20049;-83
2021/12/03 18:03:42;;;;;;;6.93;6.40;;;12.70;81.20;;;;;;5014418;28;20383;-82
2021/12/03 18:44:09;;;;;;;6.97;6.68;;;12.70;81.40;;;;;;4984658;28;20081;-82
2021/12/03 18:49:46;;;;;;;7.32;6.93;;;12.80;81.50;;;;;;4994405;28;20531;-81
2021/12/03 18:56:56;;;;;;;6.68;6.38;;;12.80;81.60;;;;;;5052948;28;20044;-83
2021/12/03 18:59:27;;;;;;;7.43;7.05;;;12.80;81.60;;;;;;5049770;28;20032;-84
2021/12/03 19:01:53;;;;;;;8.30;7.80;;;12.80;82.50;;;;;;5048203;28;20068;-86
2021/12/03 19:04:33;;;;;;;6.70;6.40;;;12.80;81.70;;;;;;5051434;28;20036;-83
2021/12/03 19:07:10;;;;;;;7.20;6.90;;;12.80;81.70;;;;;;5051035;28;20497;-81
2021/12/03 19:09:44;;;;;;;6.97;6.68;;;12.80;81.70;;;;;;5050747;28;20044;-81
2021/12/03 19:12:13;;;;;;;7.57;7.18;;;12.80;81.70;;;;;;5050540;28;20037;-81
2021/12/03 19:14:47;;;;;;;7.05;6.75;;;12.80;81.70;;;;;;5049554;28;20378;-84
2021/12/03 19:17:14;;;;;;;7.15;6.85;;;12.80;81.70;;;;;;5042939;28;20032;-85
2021/12/03 19:19:43;;;;;;;7.20;6.88;;;12.90;81.80;;;;;;5046643;28;20033;-85
2021/12/03 19:22:10;;;;;;;8.05;7.60;;;12.90;81.80;;;;;;5048741;28;20057;-84
2021/12/03 19:24:36;;;;;;;7.35;6.95;;;12.90;81.80;;;;;;5049543;28;20509;-84
2021/12/03 19:27:03;;;;;;;7.55;7.15;;;12.90;81.90;;;;;;5047752;28;20025;-83
2021/12/03 19:29:31;;;;;;;15.13;7.22;;;12.90;81.90;;;;;;5048705;28;20032;-81
2021/12/03 19:31:57;;;;;;;7.18;6.88;;;12.90;81.90;;;;;;5047607;28;20041;-82
2021/12/03 19:34:23;;;;;;;7.38;6.97;;;13.00;82.00;;;;;;5050482;28;20470;-82
2021/12/03 19:36:50;;;;;;;7.40;7.10;;;13.00;81.90;;;;;;5047952;28;20028;-82
2021/12/03 19:39:17;;;;;;;7.85;7.35;;;12.90;81.90;;;;;;5049514;28;20021;-82
2021/12/03 19:44:16;;;;;;;7.10;6.80;;;13.00;82.10;;;;;;5053264;28;20044;-84
2021/12/03 19:46:47;;;;;;;6.95;6.65;;;13.00;82.10;;;;;;5049066;28;20053;-84
2021/12/03 19:51:48;;;;;;;7.32;7.03;;;13.00;82.10;;;;;;5047451;28;20478;-81
2021/12/03 19:54:14;;;;;;;6.97;6.68;;;13.00;82.10;;;;;;5046992;28;20041;-82
2021/12/03 19:56:41;;;;;;;6.95;6.65;;;13.00;82.10;;;;;;5045454;28;20041;-81
2021/12/03 19:59:07;;;;;;;6.97;6.68;;;13.00;82.10;;;;;;5046565;28;20064;-81
2021/12/03 20:01:34;;;;;;;7.07;6.78;;;13.10;82.20;;;;;;5049122;28;20045;-81
2021/12/03 20:04:01;;;;;;;6.97;6.68;;;13.00;82.10;;;;;;5029376;28;20477;-80
2021/12/03 20:06:27;;;;;;;7.40;7.10;;;13.10;82.20;;;;;;5042716;28;20029;-80
2021/12/03 20:08:56;;;;;;;7.15;6.85;;;13.10;82.20;;;;;;5046209;28;20108;-82
2021/12/03 20:11:26;;;;;;;7.00;6.70;;;13.10;82.20;;;;;;5046324;28;20045;-81
2021/12/03 20:13:56;;;;;;;7.22;6.93;;;13.10;82.30;;;;;;5048759;28;20032;-81
2021/12/03 20:16:27;;;;;;;6.82;6.53;;;13.10;82.30;;;;;;5049627;28;20029;-82
2021/12/03 20:19:05;;;;;;;7.03;6.72;;;13.10;82.30;;;;;;5047553;28;20025;-84
2021/12/03 20:21:32;;;;;;;7.22;6.93;;;13.10;82.30;;;;;;5046008;28;20036;-82
2021/12/03 20:31:58;;;;;;;7.80;7.20;;;13.20;82.30;;;;;;5050076;28;20032;-81
2021/12/03 20:36:54;;;;;;;11.48;7.03;;;13.20;82.40;;;;;;5048291;28;20029;-81
2021/12/03 20:39:24;;;;;;;7.30;7.00;;;13.20;82.40;;;;;;5047804;28;20029;-81
2021/12/03 20:42:00;;;;;;;7.30;7.00;;;13.20;82.50;;;;;;5048842;28;20496;-81